sensor_id;sensor_type;location;lat;lon;timestamp;temperature;humidity
67157;SHT31;54086;50.126;8.710;2023-02-26T00:02:08;1.68;69.97
67157;SHT31;54086;50.126;8.710;2023-02-26T00:04:35;1.69;70.39
67157;SHT31;54086;50.126;8.710;2023-02-26T00:07:01;1.63;70.37
67157;SHT31;54086;50.126;8.710;2023-02-26T00:09:28;1.63;70.52
67157;SHT31;54086;50.126;8.710;2023-02-26T00:11:54;1.63;70.42
67157;SHT31;54086;50.126;8.710;2023-02-26T00:14:19;1.61;70.47
67157;SHT31;54086;50.126;8.710;2023-02-26T00:19:30;1.72;70.06
67157;SHT31;54086;50.126;8.710;2023-02-26T00:21:56;1.73;69.99
67157;SHT31;54086;50.126;8.710;2023-02-26T00:24:22;1.79;69.90
67157;SHT31;54086;50.126;8.710;2023-02-26T00:26:47;1.76;69.85
67157;SHT31;54086;50.126;8.710;2023-02-26T00:29:13;1.75;70.06
67157;SHT31;54086;50.126;8.710;2023-02-26T00:31:38;1.66;70.27
67157;SHT31;54086;50.126;8.710;2023-02-26T00:34:04;1.69;70.44
67157;SHT31;54086;50.126;8.710;2023-02-26T00:36:46;1.62;70.39
67157;SHT31;54086;50.126;8.710;2023-02-26T00:41:43;1.65;70.64
67157;SHT31;54086;50.126;8.710;2023-02-26T00:44:09;1.65;70.79
67157;SHT31;54086;50.126;8.710;2023-02-26T00:46:47;1.59;71.00
67157;SHT31;54086;50.126;8.710;2023-02-26T00:49:21;1.61;71.16
67157;SHT31;54086;50.126;8.710;2023-02-26T00:51:55;1.58;71.19
67157;SHT31;54086;50.126;8.710;2023-02-26T00:54:26;1.55;71.34
67157;SHT31;54086;50.126;8.710;2023-02-26T00:56:53;1.56;71.24
67157;SHT31;54086;50.126;8.710;2023-02-26T00:59:19;1.59;71.40
67157;SHT31;54086;50.126;8.710;2023-02-26T01:01:45;1.56;71.50
67157;SHT31;54086;50.126;8.710;2023-02-26T01:04:11;1.56;71.49
67157;SHT31;54086;50.126;8.710;2023-02-26T01:06:50;1.63;71.62
67157;SHT31;54086;50.126;8.710;2023-02-26T01:09:25;1.59;71.49
67157;SHT31;54086;50.126;8.710;2023-02-26T01:11:52;1.61;71.57
67157;SHT31;54086;50.126;8.710;2023-02-26T01:14:19;1.54;71.72
67157;SHT31;54086;50.126;8.710;2023-02-26T01:22:13;1.58;71.93
67157;SHT31;54086;50.126;8.710;2023-02-26T01:24:40;1.55;71.94
67157;SHT31;54086;50.126;8.710;2023-02-26T01:27:06;1.52;72.25
67157;SHT31;54086;50.126;8.710;2023-02-26T01:29:31;1.55;72.36
67157;SHT31;54086;50.126;8.710;2023-02-26T01:32:11;1.54;72.47
67157;SHT31;54086;50.126;8.710;2023-02-26T01:35:01;1.51;72.60
67157;SHT31;54086;50.126;8.710;2023-02-26T01:40:57;1.44;73.28
67157;SHT31;54086;50.126;8.710;2023-02-26T01:49:19;1.40;74.41
67157;SHT31;54086;50.126;8.710;2023-02-26T01:54:20;1.28;75.03
67157;SHT31;54086;50.126;8.710;2023-02-26T01:56:48;1.35;75.21
67157;SHT31;54086;50.126;8.710;2023-02-26T01:59:15;1.27;75.16
67157;SHT31;54086;50.126;8.710;2023-02-26T02:01:44;1.24;75.16
67157;SHT31;54086;50.126;8.710;2023-02-26T02:04:12;1.19;75.71
67157;SHT31;54086;50.126;8.710;2023-02-26T02:06:38;1.21;75.91
67157;SHT31;54086;50.126;8.710;2023-02-26T02:09:04;1.24;75.95
67157;SHT31;54086;50.126;8.710;2023-02-26T02:11:30;1.28;76.05
67157;SHT31;54086;50.126;8.710;2023-02-26T02:22:09;1.14;78.08
67157;SHT31;54086;50.126;8.710;2023-02-26T02:27:26;1.11;79.01
67157;SHT31;54086;50.126;8.710;2023-02-26T02:32:49;1.00;79.11
67157;SHT31;54086;50.126;8.710;2023-02-26T02:35:26;1.04;79.26
67157;SHT31;54086;50.126;8.710;2023-02-26T02:37:59;1.04;78.86
67157;SHT31;54086;50.126;8.710;2023-02-26T02:40:32;1.08;78.85
67157;SHT31;54086;50.126;8.710;2023-02-26T02:43:02;1.05;78.68
67157;SHT31;54086;50.126;8.710;2023-02-26T02:45:44;0.99;78.63
67157;SHT31;54086;50.126;8.710;2023-02-26T02:48:25;0.87;77.81
67157;SHT31;54086;50.126;8.710;2023-02-26T02:53:43;0.75;77.73
67157;SHT31;54086;50.126;8.710;2023-02-26T02:56:17;0.70;77.99
67157;SHT31;54086;50.126;8.710;2023-02-26T02:58:49;0.52;78.39
67157;SHT31;54086;50.126;8.710;2023-02-26T03:01:18;0.62;78.55
67157;SHT31;54086;50.126;8.710;2023-02-26T03:06:14;0.53;79.57
67157;SHT31;54086;50.126;8.710;2023-02-26T03:08:42;0.45;79.91
67157;SHT31;54086;50.126;8.710;2023-02-26T03:11:08;0.46;80.29
67157;SHT31;54086;50.126;8.710;2023-02-26T03:13:34;0.41;80.60
67157;SHT31;54086;50.126;8.710;2023-02-26T03:24:11;0.39;81.51
67157;SHT31;54086;50.126;8.710;2023-02-26T03:26:46;0.42;81.65
67157;SHT31;54086;50.126;8.710;2023-02-26T03:29:28;0.45;81.69
67157;SHT31;54086;50.126;8.710;2023-02-26T03:32:17;0.45;81.94
67157;SHT31;54086;50.126;8.710;2023-02-26T03:34:51;0.38;82.15
67157;SHT31;54086;50.126;8.710;2023-02-26T03:37:24;0.38;82.29
67157;SHT31;54086;50.126;8.710;2023-02-26T03:39:54;0.32;82.63
67157;SHT31;54086;50.126;8.710;2023-02-26T03:42:26;0.24;82.79
67157;SHT31;54086;50.126;8.710;2023-02-26T03:45:06;0.25;82.85
67157;SHT31;54086;50.126;8.710;2023-02-26T03:47:35;0.18;83.04
67157;SHT31;54086;50.126;8.710;2023-02-26T03:52:31;0.22;82.98
67157;SHT31;54086;50.126;8.710;2023-02-26T03:55:02;0.26;82.89
67157;SHT31;54086;50.126;8.710;2023-02-26T03:57:29;0.21;82.85
67157;SHT31;54086;50.126;8.710;2023-02-26T03:59:55;0.25;82.80
67157;SHT31;54086;50.126;8.710;2023-02-26T04:02:31;0.21;82.73
67157;SHT31;54086;50.126;8.710;2023-02-26T04:05:10;0.18;82.67
67157;SHT31;54086;50.126;8.710;2023-02-26T04:07:37;0.24;82.74
67157;SHT31;54086;50.126;8.710;2023-02-26T04:10:03;0.24;82.80
67157;SHT31;54086;50.126;8.710;2023-02-26T04:12:30;0.24;82.80
67157;SHT31;54086;50.126;8.710;2023-02-26T04:14:56;0.26;82.78
67157;SHT31;54086;50.126;8.710;2023-02-26T04:17:22;0.19;82.93
67157;SHT31;54086;50.126;8.710;2023-02-26T04:19:47;0.19;82.98
67157;SHT31;54086;50.126;8.710;2023-02-26T04:22:13;0.14;83.25
67157;SHT31;54086;50.126;8.710;2023-02-26T04:24:38;0.12;83.35
67157;SHT31;54086;50.126;8.710;2023-02-26T04:27:04;0.17;83.41
67157;SHT31;54086;50.126;8.710;2023-02-26T04:29:29;0.11;83.38
67157;SHT31;54086;50.126;8.710;2023-02-26T04:31:54;0.11;83.35
67157;SHT31;54086;50.126;8.710;2023-02-26T04:34:20;0.10;83.34
67157;SHT31;54086;50.126;8.710;2023-02-26T04:36:45;0.05;83.46
67157;SHT31;54086;50.126;8.710;2023-02-26T04:39:11;0.04;83.55
67157;SHT31;54086;50.126;8.710;2023-02-26T04:41:37;0.04;83.45
67157;SHT31;54086;50.126;8.710;2023-02-26T04:44:03;0.00;83.40
67157;SHT31;54086;50.126;8.710;2023-02-26T04:46:28;-0.05;83.43
67157;SHT31;54086;50.126;8.710;2023-02-26T04:48:54;-0.09;83.62
67157;SHT31;54086;50.126;8.710;2023-02-26T04:51:19;-0.10;83.70
67157;SHT31;54086;50.126;8.710;2023-02-26T04:53:45;-0.13;83.69
67157;SHT31;54086;50.126;8.710;2023-02-26T04:56:10;-0.10;83.61
67157;SHT31;54086;50.126;8.710;2023-02-26T04:58:36;-0.11;83.27
67157;SHT31;54086;50.126;8.710;2023-02-26T05:01:01;-0.11;83.10
67157;SHT31;54086;50.126;8.710;2023-02-26T05:03:27;-0.17;82.98
67157;SHT31;54086;50.126;8.710;2023-02-26T05:05:52;-0.17;82.97
67157;SHT31;54086;50.126;8.710;2023-02-26T05:08:17;-0.16;82.88
67157;SHT31;54086;50.126;8.710;2023-02-26T05:10:44;-0.20;82.85
67157;SHT31;54086;50.126;8.710;2023-02-26T05:13:09;-0.24;82.73
67157;SHT31;54086;50.126;8.710;2023-02-26T05:15:35;-0.20;82.82
67157;SHT31;54086;50.126;8.710;2023-02-26T05:18:00;-0.21;82.65
67157;SHT31;54086;50.126;8.710;2023-02-26T05:20:25;-0.23;82.62
67157;SHT31;54086;50.126;8.710;2023-02-26T05:22:51;-0.20;82.57
67157;SHT31;54086;50.126;8.710;2023-02-26T05:25:16;-0.24;82.42
67157;SHT31;54086;50.126;8.710;2023-02-26T05:27:42;-0.11;82.49
67157;SHT31;54086;50.126;8.710;2023-02-26T05:30:08;-0.10;81.89
67157;SHT31;54086;50.126;8.710;2023-02-26T05:32:34;-0.11;81.70
67157;SHT31;54086;50.126;8.710;2023-02-26T05:35:00;-0.09;81.62
67157;SHT31;54086;50.126;8.710;2023-02-26T05:37:26;-0.10;81.68
67157;SHT31;54086;50.126;8.710;2023-02-26T05:39:51;-0.16;81.59
67157;SHT31;54086;50.126;8.710;2023-02-26T05:42:17;-0.14;81.33
67157;SHT31;54086;50.126;8.710;2023-02-26T05:44:42;-0.14;81.25
67157;SHT31;54086;50.126;8.710;2023-02-26T05:47:08;-0.13;81.22
67157;SHT31;54086;50.126;8.710;2023-02-26T05:49:33;-0.14;81.17
67157;SHT31;54086;50.126;8.710;2023-02-26T05:51:58;-0.16;81.15
67157;SHT31;54086;50.126;8.710;2023-02-26T05:54:24;-0.11;81.04
67157;SHT31;54086;50.126;8.710;2023-02-26T05:56:49;-0.07;80.95
67157;SHT31;54086;50.126;8.710;2023-02-26T05:59:15;-0.07;80.65
67157;SHT31;54086;50.126;8.710;2023-02-26T06:01:41;-0.02;80.51
67157;SHT31;54086;50.126;8.710;2023-02-26T06:04:07;0.00;80.39
67157;SHT31;54086;50.126;8.710;2023-02-26T06:06:32;0.05;80.30
67157;SHT31;54086;50.126;8.710;2023-02-26T06:08:58;0.14;80.07
67157;SHT31;54086;50.126;8.710;2023-02-26T06:11:25;0.10;79.88
67157;SHT31;54086;50.126;8.710;2023-02-26T06:13:50;0.01;79.92
67157;SHT31;54086;50.126;8.710;2023-02-26T06:16:16;-0.03;80.17
67157;SHT31;54086;50.126;8.710;2023-02-26T06:18:41;-0.05;79.94
67157;SHT31;54086;50.126;8.710;2023-02-26T06:21:07;-0.02;80.12
67157;SHT31;54086;50.126;8.710;2023-02-26T06:23:33;0.02;80.18
67157;SHT31;54086;50.126;8.710;2023-02-26T06:25:58;0.02;79.85
67157;SHT31;54086;50.126;8.710;2023-02-26T06:28:25;-0.03;79.97
67157;SHT31;54086;50.126;8.710;2023-02-26T06:30:52;0.00;79.92
67157;SHT31;54086;50.126;8.710;2023-02-26T06:33:17;-0.03;80.13
67157;SHT31;54086;50.126;8.710;2023-02-26T06:35:43;-0.05;80.17
67157;SHT31;54086;50.126;8.710;2023-02-26T06:38:08;-0.02;80.03
67157;SHT31;54086;50.126;8.710;2023-02-26T06:40:33;0.01;79.82
67157;SHT31;54086;50.126;8.710;2023-02-26T06:42:59;0.07;79.58
67157;SHT31;54086;50.126;8.710;2023-02-26T06:45:24;0.00;79.66
67157;SHT31;54086;50.126;8.710;2023-02-26T06:47:50;0.11;79.62
67157;SHT31;54086;50.126;8.710;2023-02-26T06:50:15;0.14;79.47
67157;SHT31;54086;50.126;8.710;2023-02-26T06:52:41;0.18;79.69
67157;SHT31;54086;50.126;8.710;2023-02-26T06:55:07;0.21;79.39
67157;SHT31;54086;50.126;8.710;2023-02-26T06:57:32;0.24;79.24
67157;SHT31;54086;50.126;8.710;2023-02-26T06:59:58;0.17;79.06
67157;SHT31;54086;50.126;8.710;2023-02-26T07:02:23;0.21;79.13
67157;SHT31;54086;50.126;8.710;2023-02-26T07:04:48;0.26;79.29
67157;SHT31;54086;50.126;8.710;2023-02-26T07:07:14;0.26;78.97
67157;SHT31;54086;50.126;8.710;2023-02-26T07:09:39;0.25;78.97
67157;SHT31;54086;50.126;8.710;2023-02-26T07:12:05;0.28;78.64
67157;SHT31;54086;50.126;8.710;2023-02-26T07:14:32;0.31;78.49
67157;SHT31;54086;50.126;8.710;2023-02-26T07:16:58;0.29;78.40
67157;SHT31;54086;50.126;8.710;2023-02-26T07:19:23;0.41;78.46
67157;SHT31;54086;50.126;8.710;2023-02-26T07:21:48;0.46;78.39
67157;SHT31;54086;50.126;8.710;2023-02-26T07:24:14;0.53;78.37
67157;SHT31;54086;50.126;8.710;2023-02-26T07:26:39;0.55;78.09
67157;SHT31;54086;50.126;8.710;2023-02-26T07:29:05;0.66;78.06
67157;SHT31;54086;50.126;8.710;2023-02-26T07:31:30;0.59;77.70
67157;SHT31;54086;50.126;8.710;2023-02-26T07:33:56;0.53;78.10
67157;SHT31;54086;50.126;8.710;2023-02-26T07:36:21;0.72;78.12
67157;SHT31;54086;50.126;8.710;2023-02-26T07:38:47;0.83;77.74
67157;SHT31;54086;50.126;8.710;2023-02-26T07:41:12;0.91;77.18
67157;SHT31;54086;50.126;8.710;2023-02-26T07:43:38;0.99;77.10
67157;SHT31;54086;50.126;8.710;2023-02-26T07:46:03;0.99;76.99
67157;SHT31;54086;50.126;8.710;2023-02-26T07:48:29;1.19;76.46
67157;SHT31;54086;50.126;8.710;2023-02-26T07:50:54;1.85;74.85
67157;SHT31;54086;50.126;8.710;2023-02-26T07:53:20;2.54;72.43
67157;SHT31;54086;50.126;8.710;2023-02-26T07:55:46;2.85;71.40
67157;SHT31;54086;50.126;8.710;2023-02-26T07:58:11;3.40;69.87
67157;SHT31;54086;50.126;8.710;2023-02-26T08:00:37;3.91;68.15
67157;SHT31;54086;50.126;8.710;2023-02-26T08:03:02;4.02;67.97
67157;SHT31;54086;50.126;8.710;2023-02-26T08:05:28;4.03;67.18
67157;SHT31;54086;50.126;8.710;2023-02-26T08:07:53;3.74;67.51
67157;SHT31;54086;50.126;8.710;2023-02-26T08:10:18;4.39;66.01
67157;SHT31;54086;50.126;8.710;2023-02-26T08:12:44;4.43;64.96
67157;SHT31;54086;50.126;8.710;2023-02-26T08:15:10;3.92;66.23
67157;SHT31;54086;50.126;8.710;2023-02-26T08:17:37;4.43;65.21
67157;SHT31;54086;50.126;8.710;2023-02-26T08:20:03;4.08;65.17
67157;SHT31;54086;50.126;8.710;2023-02-26T08:22:29;4.42;64.61
67157;SHT31;54086;50.126;8.710;2023-02-26T08:24:54;4.50;64.61
67157;SHT31;54086;50.126;8.710;2023-02-26T08:27:20;4.69;63.53
67157;SHT31;54086;50.126;8.710;2023-02-26T08:29:45;4.02;64.66
67157;SHT31;54086;50.126;8.710;2023-02-26T08:32:11;4.57;64.36
67157;SHT31;54086;50.126;8.710;2023-02-26T08:34:37;4.81;63.03
67157;SHT31;54086;50.126;8.710;2023-02-26T08:37:05;4.60;63.71
67157;SHT31;54086;50.126;8.710;2023-02-26T08:39:33;3.77;65.77
67157;SHT31;54086;50.126;8.710;2023-02-26T08:42:02;2.92;67.91
67157;SHT31;54086;50.126;8.710;2023-02-26T08:44:28;2.51;68.75
67157;SHT31;54086;50.126;8.710;2023-02-26T08:46:53;2.44;69.66
67157;SHT31;54086;50.126;8.710;2023-02-26T08:49:20;2.34;69.07
67157;SHT31;54086;50.126;8.710;2023-02-26T08:51:46;3.06;67.91
67157;SHT31;54086;50.126;8.710;2023-02-26T08:54:11;4.01;66.24
67157;SHT31;54086;50.126;8.710;2023-02-26T08:56:37;4.64;63.80
67157;SHT31;54086;50.126;8.710;2023-02-26T08:59:02;4.91;62.37
67157;SHT31;54086;50.126;8.710;2023-02-26T09:01:28;5.35;61.37
67157;SHT31;54086;50.126;8.710;2023-02-26T09:03:53;5.69;61.01
67157;SHT31;54086;50.126;8.710;2023-02-26T09:06:18;5.39;61.89
67157;SHT31;54086;50.126;8.710;2023-02-26T09:08:44;5.91;59.86
67157;SHT31;54086;50.126;8.710;2023-02-26T09:11:09;6.18;59.09
67157;SHT31;54086;50.126;8.710;2023-02-26T09:13:35;6.01;59.12
67157;SHT31;54086;50.126;8.710;2023-02-26T09:16:00;6.24;58.70
67157;SHT31;54086;50.126;8.710;2023-02-26T09:18:26;6.37;58.21
67157;SHT31;54086;50.126;8.710;2023-02-26T09:20:51;5.63;59.33
67157;SHT31;54086;50.126;8.710;2023-02-26T09:23:16;5.29;61.05
67157;SHT31;54086;50.126;8.710;2023-02-26T09:25:42;5.20;61.16
67157;SHT31;54086;50.126;8.710;2023-02-26T09:28:07;4.97;62.30
67157;SHT31;54086;50.126;8.710;2023-02-26T09:30:33;5.73;59.85
67157;SHT31;54086;50.126;8.710;2023-02-26T09:32:58;5.22;59.86
67157;SHT31;54086;50.126;8.710;2023-02-26T09:35:24;4.80;61.96
67157;SHT31;54086;50.126;8.710;2023-02-26T09:37:49;5.11;61.05
67157;SHT31;54086;50.126;8.710;2023-02-26T09:40:23;5.18;60.56
67157;SHT31;54086;50.126;8.710;2023-02-26T09:45:36;5.49;61.23
67157;SHT31;54086;50.126;8.710;2023-02-26T09:48:04;5.20;60.75
67157;SHT31;54086;50.126;8.710;2023-02-26T09:50:44;5.01;61.43
67157;SHT31;54086;50.126;8.710;2023-02-26T09:53:11;5.81;58.95
67157;SHT31;54086;50.126;8.710;2023-02-26T09:55:42;5.63;59.08
67157;SHT31;54086;50.126;8.710;2023-02-26T09:58:34;5.32;61.20
67157;SHT31;54086;50.126;8.710;2023-02-26T10:04:09;5.12;60.57
67157;SHT31;54086;50.126;8.710;2023-02-26T10:07:01;5.72;58.78
67157;SHT31;54086;50.126;8.710;2023-02-26T10:09:59;5.22;59.75
67157;SHT31;54086;50.126;8.710;2023-02-26T10:12:28;4.97;60.96
67157;SHT31;54086;50.126;8.710;2023-02-26T10:23:01;5.38;59.13
67157;SHT31;54086;50.126;8.710;2023-02-26T10:25:36;5.45;59.40
67157;SHT31;54086;50.126;8.710;2023-02-26T10:30:57;5.76;57.87
67157;SHT31;54086;50.126;8.710;2023-02-26T10:33:48;6.38;57.09
67157;SHT31;54086;50.126;8.710;2023-02-26T10:38:53;6.53;56.44
67157;SHT31;54086;50.126;8.710;2023-02-26T10:41:24;5.91;58.92
67157;SHT31;54086;50.126;8.710;2023-02-26T10:44:08;5.58;58.82
67157;SHT31;54086;50.126;8.710;2023-02-26T10:49:30;5.14;59.11
67157;SHT31;54086;50.126;8.710;2023-02-26T10:52:12;4.95;59.31
67157;SHT31;54086;50.126;8.710;2023-02-26T10:54:45;4.92;59.70
67157;SHT31;54086;50.126;8.710;2023-02-26T10:57:22;4.69;60.02
67157;SHT31;54086;50.126;8.710;2023-02-26T10:59:48;4.52;61.05
67157;SHT31;54086;50.126;8.710;2023-02-26T11:02:34;4.61;60.20
67157;SHT31;54086;50.126;8.710;2023-02-26T11:05:01;4.54;60.20
67157;SHT31;54086;50.126;8.710;2023-02-26T11:07:29;4.53;60.45
67157;SHT31;54086;50.126;8.710;2023-02-26T11:09:55;4.50;60.72
67157;SHT31;54086;50.126;8.710;2023-02-26T11:12:21;4.56;60.04
67157;SHT31;54086;50.126;8.710;2023-02-26T11:14:48;4.46;60.70
67157;SHT31;54086;50.126;8.710;2023-02-26T11:17:17;4.08;61.24
67157;SHT31;54086;50.126;8.710;2023-02-26T11:19:54;4.40;61.54
67157;SHT31;54086;50.126;8.710;2023-02-26T11:22:21;4.63;60.34
67157;SHT31;54086;50.126;8.710;2023-02-26T11:24:47;4.16;61.29
67157;SHT31;54086;50.126;8.710;2023-02-26T11:27:17;4.57;60.46
67157;SHT31;54086;50.126;8.710;2023-02-26T11:29:46;4.77;59.66
67157;SHT31;54086;50.126;8.710;2023-02-26T11:32:18;4.92;59.78
67157;SHT31;54086;50.126;8.710;2023-02-26T11:34:48;4.70;58.73
67157;SHT31;54086;50.126;8.710;2023-02-26T11:37:19;4.83;57.79
67157;SHT31;54086;50.126;8.710;2023-02-26T11:39:45;4.67;57.98
67157;SHT31;54086;50.126;8.710;2023-02-26T11:42:11;4.56;58.74
67157;SHT31;54086;50.126;8.710;2023-02-26T11:44:39;4.69;58.26
67157;SHT31;54086;50.126;8.710;2023-02-26T11:47:14;4.35;57.60
67157;SHT31;54086;50.126;8.710;2023-02-26T11:49:52;4.56;56.70
67157;SHT31;54086;50.126;8.710;2023-02-26T11:52:34;4.50;57.16
67157;SHT31;54086;50.126;8.710;2023-02-26T11:55:01;4.43;57.00
67157;SHT31;54086;50.126;8.710;2023-02-26T11:57:29;4.59;57.11
67157;SHT31;54086;50.126;8.710;2023-02-26T11:59:57;4.43;57.10
67157;SHT31;54086;50.126;8.710;2023-02-26T12:02:25;4.56;56.60
67157;SHT31;54086;50.126;8.710;2023-02-26T12:04:54;4.45;57.57
67157;SHT31;54086;50.126;8.710;2023-02-26T12:07:20;4.36;57.56
67157;SHT31;54086;50.126;8.710;2023-02-26T12:09:47;4.35;57.39
67157;SHT31;54086;50.126;8.710;2023-02-26T12:20:35;3.95;59.07
67157;SHT31;54086;50.126;8.710;2023-02-26T12:26:19;4.09;58.63
67157;SHT31;54086;50.126;8.710;2023-02-26T12:34:25;4.16;58.97
67157;SHT31;54086;50.126;8.710;2023-02-26T12:40:55;4.16;58.93
67157;SHT31;54086;50.126;8.710;2023-02-26T12:43:22;4.69;57.79
67157;SHT31;54086;50.126;8.710;2023-02-26T12:45:55;4.73;57.52
67157;SHT31;54086;50.126;8.710;2023-02-26T12:59:59;4.25;58.96
67157;SHT31;54086;50.126;8.710;2023-02-26T13:02:53;4.38;59.03
67157;SHT31;54086;50.126;8.710;2023-02-26T13:11:05;4.49;58.90
67157;SHT31;54086;50.126;8.710;2023-02-26T13:13:35;4.53;58.95
67157;SHT31;54086;50.126;8.710;2023-02-26T13:16:29;4.67;58.91
67157;SHT31;54086;50.126;8.710;2023-02-26T13:21:31;4.80;58.00
67157;SHT31;54086;50.126;8.710;2023-02-26T13:24:22;5.12;57.40
67157;SHT31;54086;50.126;8.710;2023-02-26T13:26:50;4.69;57.54
67157;SHT31;54086;50.126;8.710;2023-02-26T13:29:28;4.67;57.53
67157;SHT31;54086;50.126;8.710;2023-02-26T13:32:01;4.71;57.68
67157;SHT31;54086;50.126;8.710;2023-02-26T13:34:38;4.48;57.69
67157;SHT31;54086;50.126;8.710;2023-02-26T13:37:05;4.61;58.37
67157;SHT31;54086;50.126;8.710;2023-02-26T13:40:00;4.46;58.90
67157;SHT31;54086;50.126;8.710;2023-02-26T13:42:53;4.49;59.03
67157;SHT31;54086;50.126;8.710;2023-02-26T13:46:04;4.59;58.19
67157;SHT31;54086;50.126;8.710;2023-02-26T13:48:47;4.53;58.13
67157;SHT31;54086;50.126;8.710;2023-02-26T13:51:29;4.60;57.58
67157;SHT31;54086;50.126;8.710;2023-02-26T13:54:00;4.81;57.14
67157;SHT31;54086;50.126;8.710;2023-02-26T14:06:43;4.22;56.42
67157;SHT31;54086;50.126;8.710;2023-02-26T14:14:35;4.32;55.82
67157;SHT31;54086;50.126;8.710;2023-02-26T14:17:37;4.25;55.94
67157;SHT31;54086;50.126;8.710;2023-02-26T14:20:13;4.39;56.21
67157;SHT31;54086;50.126;8.710;2023-02-26T14:22:40;4.52;55.98
67157;SHT31;54086;50.126;8.710;2023-02-26T14:27:38;4.77;55.76
67157;SHT31;54086;50.126;8.710;2023-02-26T14:32:52;5.00;57.14
67157;SHT31;54086;50.126;8.710;2023-02-26T14:35:24;4.95;57.96
67157;SHT31;54086;50.126;8.710;2023-02-26T14:40:31;4.83;58.38
67157;SHT31;54086;50.126;8.710;2023-02-26T14:43:01;4.84;59.04
67157;SHT31;54086;50.126;8.710;2023-02-26T14:45:34;4.98;58.48
67157;SHT31;54086;50.126;8.710;2023-02-26T14:48:03;4.92;58.24
67157;SHT31;54086;50.126;8.710;2023-02-26T14:59:08;4.40;56.59
67157;SHT31;54086;50.126;8.710;2023-02-26T15:04:43;4.48;56.76
67157;SHT31;54086;50.126;8.710;2023-02-26T15:18:13;4.56;57.48
67157;SHT31;54086;50.126;8.710;2023-02-26T15:20:49;4.36;58.03
67157;SHT31;54086;50.126;8.710;2023-02-26T15:25:56;4.25;57.61
67157;SHT31;54086;50.126;8.710;2023-02-26T15:28:47;4.33;57.52
67157;SHT31;54086;50.126;8.710;2023-02-26T15:31:13;4.22;57.92
67157;SHT31;54086;50.126;8.710;2023-02-26T15:33:40;4.26;57.93
67157;SHT31;54086;50.126;8.710;2023-02-26T15:36:11;4.33;58.04
67157;SHT31;54086;50.126;8.710;2023-02-26T15:39:09;4.35;57.91
67157;SHT31;54086;50.126;8.710;2023-02-26T15:41:35;4.33;58.30
67157;SHT31;54086;50.126;8.710;2023-02-26T15:44:07;4.26;58.07
67157;SHT31;54086;50.126;8.710;2023-02-26T15:46:37;4.18;57.49
67157;SHT31;54086;50.126;8.710;2023-02-26T15:49:07;4.22;57.65
67157;SHT31;54086;50.126;8.710;2023-02-26T15:51:34;4.23;57.66
67157;SHT31;54086;50.126;8.710;2023-02-26T15:54:00;4.11;56.63
67157;SHT31;54086;50.126;8.710;2023-02-26T15:56:33;3.92;57.04
67157;SHT31;54086;50.126;8.710;2023-02-26T15:59:03;3.85;56.94
67157;SHT31;54086;50.126;8.710;2023-02-26T16:01:30;3.92;56.82
67157;SHT31;54086;50.126;8.710;2023-02-26T16:04:00;3.95;56.72
67157;SHT31;54086;50.126;8.710;2023-02-26T16:06:35;4.03;56.97
67157;SHT31;54086;50.126;8.710;2023-02-26T16:09:04;4.01;56.48
67157;SHT31;54086;50.126;8.710;2023-02-26T16:11:37;3.95;56.97
67157;SHT31;54086;50.126;8.710;2023-02-26T16:14:05;3.81;57.65
67157;SHT31;54086;50.126;8.710;2023-02-26T16:16:43;3.84;57.40
67157;SHT31;54086;50.126;8.710;2023-02-26T16:19:14;3.84;57.58
67157;SHT31;54086;50.126;8.710;2023-02-26T16:21:40;3.91;57.36
67157;SHT31;54086;50.126;8.710;2023-02-26T16:24:08;3.80;57.84
67157;SHT31;54086;50.126;8.710;2023-02-26T16:26:40;3.70;58.13
67157;SHT31;54086;50.126;8.710;2023-02-26T16:29:12;3.75;58.45
67157;SHT31;54086;50.126;8.710;2023-02-26T16:31:39;3.71;58.38
67157;SHT31;54086;50.126;8.710;2023-02-26T16:36:49;3.44;58.76
67157;SHT31;54086;50.126;8.710;2023-02-26T16:39:28;3.53;58.99
67157;SHT31;54086;50.126;8.710;2023-02-26T16:42:07;3.53;58.96
67157;SHT31;54086;50.126;8.710;2023-02-26T16:44:35;3.27;59.47
67157;SHT31;54086;50.126;8.710;2023-02-26T16:47:02;3.30;59.72
67157;SHT31;54086;50.126;8.710;2023-02-26T16:49:29;3.23;59.68
67157;SHT31;54086;50.126;8.710;2023-02-26T16:51:55;3.23;59.69
67157;SHT31;54086;50.126;8.710;2023-02-26T17:00:20;3.29;59.66
67157;SHT31;54086;50.126;8.710;2023-02-26T17:03:11;3.30;59.73
67157;SHT31;54086;50.126;8.710;2023-02-26T17:05:40;3.34;59.66
67157;SHT31;54086;50.126;8.710;2023-02-26T17:08:13;3.26;59.81
67157;SHT31;54086;50.126;8.710;2023-02-26T17:10:46;3.36;59.57
67157;SHT31;54086;50.126;8.710;2023-02-26T17:13:18;3.44;58.97
67157;SHT31;54086;50.126;8.710;2023-02-26T17:15:45;3.34;59.07
67157;SHT31;54086;50.126;8.710;2023-02-26T17:18:12;3.33;59.31
67157;SHT31;54086;50.126;8.710;2023-02-26T17:20:38;3.29;59.55
67157;SHT31;54086;50.126;8.710;2023-02-26T17:23:05;3.30;59.81
67157;SHT31;54086;50.126;8.710;2023-02-26T17:25:39;3.33;60.26
67157;SHT31;54086;50.126;8.710;2023-02-26T17:28:05;3.16;60.30
67157;SHT31;54086;50.126;8.710;2023-02-26T17:30:31;3.15;60.66
67157;SHT31;54086;50.126;8.710;2023-02-26T17:33:00;3.27;60.80
67157;SHT31;54086;50.126;8.710;2023-02-26T17:35:28;3.33;60.69
67157;SHT31;54086;50.126;8.710;2023-02-26T17:37:55;3.29;60.86
67157;SHT31;54086;50.126;8.710;2023-02-26T17:40:34;3.29;60.52
67157;SHT31;54086;50.126;8.710;2023-02-26T17:43:04;3.19;60.58
67157;SHT31;54086;50.126;8.710;2023-02-26T17:45:31;3.22;60.55
67157;SHT31;54086;50.126;8.710;2023-02-26T17:47:57;3.19;60.15
67157;SHT31;54086;50.126;8.710;2023-02-26T17:52:48;3.20;60.35
67157;SHT31;54086;50.126;8.710;2023-02-26T17:55:13;3.05;60.04
67157;SHT31;54086;50.126;8.710;2023-02-26T17:57:39;3.10;60.38
67157;SHT31;54086;50.126;8.710;2023-02-26T18:00:04;3.05;60.11
67157;SHT31;54086;50.126;8.710;2023-02-26T18:02:30;3.02;60.01
67157;SHT31;54086;50.126;8.710;2023-02-26T18:04:55;2.95;59.85
67157;SHT31;54086;50.126;8.710;2023-02-26T18:07:22;3.02;59.92
67157;SHT31;54086;50.126;8.710;2023-02-26T18:09:48;3.02;59.64
67157;SHT31;54086;50.126;8.710;2023-02-26T18:12:15;2.99;59.91
67157;SHT31;54086;50.126;8.710;2023-02-26T18:14:41;3.09;60.42
67157;SHT31;54086;50.126;8.710;2023-02-26T18:17:17;2.98;60.39
67157;SHT31;54086;50.126;8.710;2023-02-26T18:19:43;2.99;60.59
67157;SHT31;54086;50.126;8.710;2023-02-26T18:22:14;3.05;60.83
67157;SHT31;54086;50.126;8.710;2023-02-26T18:24:41;2.95;60.65
67157;SHT31;54086;50.126;8.710;2023-02-26T18:27:16;2.93;60.61
67157;SHT31;54086;50.126;8.710;2023-02-26T18:29:42;2.92;60.54
67157;SHT31;54086;50.126;8.710;2023-02-26T18:32:26;3.01;60.41
67157;SHT31;54086;50.126;8.710;2023-02-26T18:34:52;3.02;60.42
67157;SHT31;54086;50.126;8.710;2023-02-26T18:37:23;2.91;60.29
67157;SHT31;54086;50.126;8.710;2023-02-26T18:39:50;2.96;60.25
67157;SHT31;54086;50.126;8.710;2023-02-26T18:42:24;2.96;60.56
67157;SHT31;54086;50.126;8.710;2023-02-26T18:44:50;2.96;60.49
67157;SHT31;54086;50.126;8.710;2023-02-26T18:47:16;3.05;60.64
67157;SHT31;54086;50.126;8.710;2023-02-26T18:49:43;2.99;60.92
67157;SHT31;54086;50.126;8.710;2023-02-26T18:52:08;2.92;60.94
67157;SHT31;54086;50.126;8.710;2023-02-26T18:54:34;2.92;60.96